createdAt,value
2018-10-07T00:02:15.883Z,16.20
2018-10-07T00:04:48.318Z,16.10
2018-10-07T00:07:21.082Z,16.20
2018-10-07T00:09:53.740Z,16.10
2018-10-07T00:12:26.220Z,16.10
2018-10-07T00:14:59.433Z,16.10
2018-10-07T00:17:32.959Z,16.10
2018-10-07T00:20:05.424Z,16.00
2018-10-07T00:22:37.852Z,16.00
2018-10-07T00:25:10.301Z,15.90
2018-10-07T00:27:42.807Z,15.90
2018-10-07T00:30:15.282Z,15.90
2018-10-07T00:32:47.736Z,15.90
2018-10-07T00:35:20.264Z,15.90
2018-10-07T00:37:52.657Z,15.80
2018-10-07T00:40:25.058Z,15.80
2018-10-07T00:42:57.490Z,15.70
2018-10-07T00:45:30.727Z,15.70
2018-10-07T00:48:03.193Z,15.70
2018-10-07T00:50:35.699Z,15.60
2018-10-07T00:53:08.150Z,15.60
2018-10-07T00:55:40.629Z,15.50
2018-10-07T00:58:13.408Z,15.60
2018-10-07T01:00:45.815Z,15.60
2018-10-07T01:03:18.350Z,15.50
2018-10-07T01:05:51.068Z,15.50
2018-10-07T01:08:23.576Z,15.50
2018-10-07T01:10:56.027Z,15.40
2018-10-07T01:13:28.509Z,15.40
2018-10-07T01:16:01.101Z,15.30
2018-10-07T01:18:33.514Z,15.30
2018-10-07T01:21:06.009Z,15.30
2018-10-07T01:23:38.457Z,15.20
2018-10-07T01:26:10.871Z,15.20
2018-10-07T01:28:43.599Z,15.20
2018-10-07T01:31:16.032Z,15.20
2018-10-07T01:33:48.541Z,15.20
2018-10-07T01:36:21.072Z,15.20
2018-10-07T01:38:53.519Z,15.10
2018-10-07T01:41:26.061Z,15.10
2018-10-07T01:43:58.521Z,15.10
2018-10-07T01:46:31.121Z,15.00
2018-10-07T01:49:03.631Z,15.00
2018-10-07T01:51:36.027Z,15.10
2018-10-07T01:54:08.511Z,15.00
2018-10-07T01:56:40.998Z,15.00
2018-10-07T01:59:13.816Z,14.90
2018-10-07T02:01:46.255Z,14.80
2018-10-07T02:04:18.704Z,14.80
2018-10-07T02:06:51.160Z,14.80
2018-10-07T02:09:23.553Z,14.80
2018-10-07T02:11:55.985Z,14.80
2018-10-07T02:14:28.448Z,14.70
2018-10-07T02:17:00.966Z,14.70
2018-10-07T02:19:33.405Z,14.70
2018-10-07T02:22:05.899Z,14.70
2018-10-07T02:24:38.378Z,14.70
2018-10-07T02:27:11.020Z,14.80
2018-10-07T02:29:43.465Z,14.80
2018-10-07T02:32:15.874Z,14.90
2018-10-07T02:34:48.339Z,14.80
2018-10-07T02:37:21.152Z,14.80
2018-10-07T02:39:53.593Z,14.80
2018-10-07T02:42:25.989Z,14.80
2018-10-07T02:44:58.466Z,14.90
2018-10-07T02:47:30.888Z,14.80
2018-10-07T02:50:13.967Z,14.90
2018-10-07T02:52:48.770Z,14.90
2018-10-07T02:55:23.084Z,14.90
2018-10-07T02:57:57.908Z,14.90
2018-10-07T03:00:30.404Z,14.90
2018-10-07T03:03:03.044Z,14.90
2018-10-07T03:05:35.457Z,14.90
2018-10-07T03:08:07.903Z,14.80
2018-10-07T03:10:40.337Z,14.80
2018-10-07T03:13:12.782Z,14.70
2018-10-07T03:15:45.238Z,14.60
2018-10-07T03:18:19.067Z,14.70
2018-10-07T03:20:51.534Z,14.60
2018-10-07T03:23:23.914Z,14.60
2018-10-07T03:25:56.367Z,14.50
2018-10-07T03:28:28.933Z,14.60
2018-10-07T03:31:01.388Z,14.60
2018-10-07T03:33:33.843Z,14.60
2018-10-07T03:36:06.255Z,14.50
2018-10-07T03:38:38.865Z,14.50
2018-10-07T03:41:11.338Z,14.40
2018-10-07T03:43:43.793Z,14.60
2018-10-07T03:46:16.282Z,14.60
2018-10-07T03:48:48.744Z,14.60
2018-10-07T03:51:21.146Z,14.70
2018-10-07T03:53:53.570Z,14.60
2018-10-07T03:56:26.306Z,14.70
2018-10-07T03:59:00.672Z,14.70
2018-10-07T04:01:33.223Z,14.60
2018-10-07T04:04:05.667Z,14.50
2018-10-07T04:06:38.090Z,14.50
2018-10-07T04:09:11.648Z,14.40
2018-10-07T04:11:44.066Z,14.40
2018-10-07T04:14:16.641Z,14.30
2018-10-07T04:16:49.208Z,14.20
2018-10-07T04:19:22.615Z,14.30
2018-10-07T04:21:56.061Z,14.30
2018-10-07T04:24:30.017Z,14.30
2018-10-07T04:27:02.464Z,14.30
2018-10-07T04:29:34.944Z,14.30
2018-10-07T04:32:07.407Z,14.20
2018-10-07T04:34:39.994Z,14.30
2018-10-07T04:37:12.638Z,14.30
2018-10-07T04:39:45.349Z,14.20
2018-10-07T04:42:17.812Z,14.30
2018-10-07T04:44:50.251Z,14.40
2018-10-07T04:47:22.689Z,14.30
2018-10-07T04:49:55.132Z,14.30
2018-10-07T04:52:27.524Z,14.20
2018-10-07T04:54:59.945Z,14.20
2018-10-07T04:57:32.342Z,14.30
2018-10-07T05:00:05.041Z,14.40
2018-10-07T05:02:37.408Z,14.40
2018-10-07T05:05:16.387Z,14.30
2018-10-07T05:07:49.457Z,14.30
2018-10-07T05:11:03.471Z,14.30
2018-10-07T05:13:45.109Z,14.30
2018-10-07T05:16:22.451Z,14.30
2018-10-07T05:18:55.079Z,14.20
2018-10-07T05:21:27.907Z,14.10
2018-10-07T05:24:00.407Z,14.00
2018-10-07T05:26:32.907Z,14.00
2018-10-07T05:29:05.366Z,13.90
2018-10-07T05:31:37.846Z,13.90
2018-10-07T05:34:10.298Z,13.90
2018-10-07T05:36:42.705Z,13.80
2018-10-07T05:39:15.111Z,13.80
2018-10-07T05:41:47.666Z,13.90
2018-10-07T05:44:20.180Z,13.90
2018-10-07T05:46:52.554Z,13.90
2018-10-07T05:49:24.937Z,13.90
2018-10-07T05:51:57.373Z,13.90
2018-10-07T05:54:29.736Z,13.90
2018-10-07T05:57:02.263Z,14.00
2018-10-07T05:59:34.808Z,14.00
2018-10-07T06:02:08.026Z,14.00
2018-10-07T06:04:56.042Z,14.10
2018-10-07T06:07:28.539Z,14.00
2018-10-07T06:10:01.099Z,14.10
2018-10-07T06:12:33.570Z,14.10
2018-10-07T06:15:30.568Z,14.10
2018-10-07T06:18:03.037Z,14.10
2018-10-07T06:20:35.514Z,14.10
2018-10-07T06:23:08.547Z,14.10
2018-10-07T06:25:41.041Z,14.10
2018-10-07T06:28:13.483Z,14.10
2018-10-07T06:30:45.973Z,14.10
2018-10-07T06:33:18.395Z,14.00
2018-10-07T06:35:50.837Z,14.00
2018-10-07T06:38:23.282Z,14.00
2018-10-07T06:40:55.777Z,14.00
2018-10-07T06:43:28.219Z,13.90
2018-10-07T06:46:00.684Z,14.00
2018-10-07T06:48:33.450Z,13.90
2018-10-07T06:51:05.956Z,14.00
2018-10-07T06:53:38.379Z,13.90
2018-10-07T06:56:10.813Z,14.00
2018-10-07T06:58:43.399Z,14.00
2018-10-07T07:01:15.890Z,14.10
2018-10-07T07:03:50.107Z,14.10
2018-10-07T07:06:22.592Z,14.10
2018-10-07T07:08:55.083Z,14.20
2018-10-07T07:11:27.502Z,14.20
2018-10-07T07:13:59.963Z,14.20
2018-10-07T07:16:32.686Z,14.20
2018-10-07T07:19:05.501Z,14.10
2018-10-07T07:21:37.896Z,14.10
2018-10-07T07:24:10.473Z,14.10
2018-10-07T07:26:42.898Z,14.00
2018-10-07T07:29:15.398Z,14.00
2018-10-07T07:31:47.873Z,13.80
2018-10-07T07:34:20.704Z,13.70
2018-10-07T07:36:53.290Z,13.50
2018-10-07T07:39:26.117Z,13.50
2018-10-07T07:41:58.931Z,13.40
2018-10-07T07:44:31.372Z,13.30
2018-10-07T07:47:03.880Z,13.30
2018-10-07T07:49:36.286Z,13.30
2018-10-07T07:52:08.718Z,13.20
2018-10-07T07:54:41.093Z,13.10
2018-10-07T07:57:13.487Z,13.10
2018-10-07T07:59:45.937Z,13.20
2018-10-07T08:02:18.627Z,13.20
2018-10-07T08:04:51.043Z,13.20
2018-10-07T08:07:23.438Z,13.20
2018-10-07T08:09:55.827Z,13.30
2018-10-07T08:12:28.659Z,13.20
2018-10-07T08:15:01.100Z,13.10
2018-10-07T08:17:33.677Z,13.10
2018-10-07T08:20:06.030Z,13.00
2018-10-07T08:22:38.611Z,12.80
2018-10-07T08:25:11.105Z,12.80
2018-10-07T08:27:43.622Z,12.80
2018-10-07T08:30:16.055Z,12.70
2018-10-07T08:32:48.466Z,12.80
2018-10-07T08:35:20.919Z,12.70
2018-10-07T08:37:53.353Z,12.70
2018-10-07T08:40:25.754Z,12.70
2018-10-07T08:42:58.204Z,12.70
2018-10-07T08:45:31.229Z,12.60
2018-10-07T08:48:03.652Z,12.60
2018-10-07T08:50:36.089Z,12.60
2018-10-07T08:53:08.574Z,12.60
2018-10-07T08:55:41.003Z,12.60
2018-10-07T08:58:13.432Z,12.70
2018-10-07T09:00:45.893Z,12.70
2018-10-07T09:03:18.270Z,12.70
2018-10-07T09:05:50.735Z,12.90
2018-10-07T09:08:23.143Z,12.90
2018-10-07T09:10:55.564Z,12.80
2018-10-07T09:13:28.225Z,12.80
2018-10-07T09:16:00.851Z,12.90
2018-10-07T09:18:33.847Z,13.00
2018-10-07T09:21:06.441Z,12.80
2018-10-07T09:23:38.779Z,12.70
2018-10-07T09:26:11.210Z,12.70
2018-10-07T09:28:43.780Z,12.50
2018-10-07T09:31:16.194Z,12.40
2018-10-07T09:33:48.601Z,12.30
2018-10-07T09:36:21.007Z,12.40
2018-10-07T09:38:53.414Z,12.50
2018-10-07T09:41:25.836Z,12.40
2018-10-07T09:43:58.330Z,12.40
2018-10-07T09:46:30.838Z,12.40
2018-10-07T09:49:03.384Z,12.40
2018-10-07T09:51:35.794Z,12.10
2018-10-07T09:54:08.166Z,12.10
2018-10-07T09:56:40.610Z,12.10
2018-10-07T09:59:13.101Z,12.20
2018-10-07T10:01:45.510Z,12.20
2018-10-07T10:04:18.732Z,12.20
2018-10-07T10:06:52.260Z,12.10
2018-10-07T10:09:24.708Z,12.00
2018-10-07T10:11:57.154Z,12.10
2018-10-07T10:14:29.553Z,12.10
2018-10-07T10:17:06.001Z,12.00
2018-10-07T10:19:46.786Z,12.10
2018-10-07T10:24:33.045Z,12.10
2018-10-07T10:27:08.947Z,12.00
2018-10-07T10:29:46.902Z,12.10
2018-10-07T10:32:27.730Z,12.10
2018-10-07T10:35:08.258Z,12.20
2018-10-07T10:38:01.151Z,12.10
2018-10-07T10:40:36.482Z,12.30
2018-10-07T10:43:20.493Z,12.30
2018-10-07T10:45:58.356Z,12.20
2018-10-07T10:48:40.336Z,12.00
2018-10-07T10:52:19.837Z,12.00
2018-10-07T10:55:04.814Z,12.10
2018-10-07T10:57:42.978Z,12.30
2018-10-07T11:00:37.879Z,12.30
2018-10-07T11:05:19.010Z,12.30
2018-10-07T11:07:58.390Z,12.30
2018-10-07T11:10:40.572Z,12.30
2018-10-07T11:13:24.549Z,12.40
2018-10-07T11:16:03.666Z,12.50
2018-10-07T11:18:51.987Z,12.50
2018-10-07T11:21:35.833Z,12.60
2018-10-07T11:24:11.135Z,12.60
2018-10-07T11:26:59.808Z,12.60
2018-10-07T11:30:00.753Z,12.50
2018-10-07T11:34:49.591Z,12.70
2018-10-07T11:37:33.363Z,12.60
2018-10-07T11:40:18.649Z,12.60
2018-10-07T11:43:03.176Z,12.60
2018-10-07T11:45:39.093Z,12.70
2018-10-07T11:48:42.044Z,12.80
2018-10-07T11:53:25.153Z,12.90
2018-10-07T11:55:57.573Z,12.70
2018-10-07T11:58:29.982Z,12.30
2018-10-07T12:01:02.415Z,12.60
2018-10-07T12:03:41.767Z,12.70
2018-10-07T12:06:14.192Z,12.70
2018-10-07T12:08:46.578Z,12.70
2018-10-07T12:11:19.021Z,12.60
2018-10-07T12:13:51.544Z,12.70
2018-10-07T12:16:23.966Z,12.60
2018-10-07T12:18:56.361Z,12.50
2018-10-07T12:21:28.774Z,12.50
2018-10-07T12:24:01.413Z,12.60
2018-10-07T12:26:33.863Z,12.50
2018-10-07T12:29:06.668Z,12.60
2018-10-07T12:31:39.540Z,12.50
2018-10-07T12:34:12.042Z,12.60
2018-10-07T12:36:44.572Z,12.60
2018-10-07T12:39:17.722Z,12.60
2018-10-07T12:41:50.205Z,12.70
2018-10-07T12:44:22.637Z,12.80
2018-10-07T12:46:55.080Z,12.90
2018-10-07T12:49:27.526Z,13.00
2018-10-07T12:52:00.180Z,13.10
2018-10-07T12:54:33.283Z,13.10
2018-10-07T12:57:05.968Z,13.10
2018-10-07T12:59:38.404Z,13.10
2018-10-07T13:02:10.822Z,13.20
2018-10-07T13:04:43.229Z,13.40
2018-10-07T13:07:15.716Z,13.30
2018-10-07T13:09:48.180Z,13.20
2018-10-07T13:12:20.982Z,13.10
2018-10-07T13:14:53.548Z,13.20
2018-10-07T13:17:26.081Z,13.20
2018-10-07T13:19:58.520Z,13.20
2018-10-07T13:22:30.935Z,13.20
2018-10-07T13:25:03.395Z,13.10
2018-10-07T13:27:35.836Z,13.00
2018-10-07T13:30:08.566Z,13.10
2018-10-07T13:32:41.013Z,13.20
2018-10-07T13:35:13.528Z,13.30
2018-10-07T13:37:45.938Z,13.30
2018-10-07T13:40:18.691Z,13.30
2018-10-07T13:42:51.107Z,13.30
2018-10-07T13:45:23.707Z,13.40
2018-10-07T13:47:56.411Z,13.40
2018-10-07T13:50:28.821Z,13.30
2018-10-07T13:53:01.247Z,13.40
2018-10-07T13:55:33.801Z,13.50
2018-10-07T13:58:06.238Z,13.40
2018-10-07T14:00:38.674Z,13.30
2018-10-07T14:03:11.109Z,13.40
2018-10-07T14:05:43.559Z,13.50
2018-10-07T14:08:15.987Z,13.50
2018-10-07T14:10:48.459Z,13.30
2018-10-07T14:13:21.017Z,13.40
2018-10-07T14:15:53.506Z,13.50
2018-10-07T14:18:25.908Z,13.40
2018-10-07T14:20:58.370Z,13.30
2018-10-07T14:23:30.806Z,13.30
2018-10-07T14:26:03.250Z,13.20
2018-10-07T14:28:35.694Z,13.20
2018-10-07T14:31:08.161Z,13.20
2018-10-07T14:33:40.627Z,13.30
2018-10-07T14:36:13.139Z,13.30
2018-10-07T14:38:45.546Z,13.30
2018-10-07T14:41:18.348Z,13.30
2018-10-07T14:43:50.731Z,13.30
2018-10-07T14:46:23.224Z,13.30
2018-10-07T14:48:55.610Z,13.20
2018-10-07T14:51:28.346Z,13.20
2018-10-07T14:54:01.354Z,13.30
2018-10-07T14:56:35.015Z,13.30
2018-10-07T14:59:07.558Z,13.00
2018-10-07T15:01:40.030Z,13.10
2018-10-07T15:04:12.411Z,13.00
2018-10-07T15:06:44.862Z,13.00
2018-10-07T15:09:17.320Z,12.90
2018-10-07T15:11:49.729Z,12.90
2018-10-07T15:14:22.210Z,13.10
2018-10-07T15:16:54.821Z,13.30
2018-10-07T15:19:27.566Z,13.30
2018-10-07T15:22:00.800Z,13.20
2018-10-07T15:24:33.224Z,13.30
2018-10-07T15:27:06.164Z,13.30
2018-10-07T15:29:38.683Z,13.30
2018-10-07T15:32:11.266Z,13.40
2018-10-07T15:34:43.981Z,13.40
2018-10-07T15:37:16.426Z,13.40
2018-10-07T15:39:49.048Z,13.30
2018-10-07T15:42:21.530Z,13.30
2018-10-07T15:44:54.122Z,13.20
2018-10-07T15:47:26.692Z,13.20
2018-10-07T15:49:59.121Z,13.20
2018-10-07T15:52:31.468Z,13.20
2018-10-07T15:55:03.937Z,13.10
2018-10-07T15:57:36.411Z,13.00
2018-10-07T16:00:09.147Z,13.00
2018-10-07T16:02:41.603Z,13.00
2018-10-07T16:05:14.348Z,13.00
2018-10-07T16:07:46.870Z,13.00
2018-10-07T16:10:19.342Z,13.00
2018-10-07T16:12:52.096Z,12.90
2018-10-07T16:15:24.532Z,13.00
2018-10-07T16:17:57.109Z,13.00
2018-10-07T16:20:29.511Z,13.00
2018-10-07T16:23:01.974Z,12.90
2018-10-07T16:25:34.566Z,12.90
2018-10-07T16:28:06.951Z,12.80
2018-10-07T16:30:39.407Z,12.80
2018-10-07T16:33:11.865Z,12.70
2018-10-07T16:35:44.289Z,12.60
2018-10-07T16:38:16.984Z,12.60
2018-10-07T16:40:49.736Z,12.60
2018-10-07T16:43:22.145Z,12.50
2018-10-07T16:45:54.573Z,12.50
2018-10-07T16:48:27.006Z,12.50
2018-10-07T16:56:07.698Z,12.30
2018-10-07T16:58:40.278Z,12.40
2018-10-07T17:01:13.106Z,12.30
2018-10-07T17:03:45.530Z,12.20
2018-10-07T17:06:17.936Z,12.10
2018-10-07T17:08:50.408Z,12.10
2018-10-07T17:11:23.031Z,12.00
2018-10-07T17:13:55.596Z,12.00
2018-10-07T17:16:28.338Z,12.00
2018-10-07T17:19:00.837Z,11.80
2018-10-07T17:21:33.484Z,11.80
2018-10-07T17:24:05.905Z,11.70
2018-10-07T17:26:38.395Z,11.70
2018-10-07T17:29:10.797Z,11.70
2018-10-07T17:31:43.211Z,11.70
2018-10-07T17:34:16.123Z,11.70
2018-10-07T17:36:48.571Z,11.70
2018-10-07T17:39:21.046Z,11.60
2018-10-07T17:41:53.478Z,11.50
2018-10-07T17:44:25.878Z,11.40
2018-10-07T17:46:58.301Z,11.40
2018-10-07T17:49:30.750Z,11.40
2018-10-07T17:52:03.171Z,11.20
2018-10-07T17:54:35.665Z,11.20
2018-10-07T17:57:08.100Z,11.10
2018-10-07T17:59:40.604Z,11.10
2018-10-07T18:02:13.050Z,11.20
2018-10-07T18:04:45.485Z,11.00
2018-10-07T18:07:17.929Z,11.00
2018-10-07T18:09:50.365Z,10.90
2018-10-07T18:12:22.758Z,10.90
2018-10-07T18:14:55.276Z,10.80
2018-10-07T18:17:27.616Z,10.80
2018-10-07T18:20:00.229Z,10.70
2018-10-07T18:22:32.611Z,10.70
2018-10-07T18:25:05.382Z,10.70
2018-10-07T18:27:37.799Z,10.70
2018-10-07T18:30:10.293Z,10.70
2018-10-07T18:32:43.051Z,10.80
2018-10-07T18:35:15.400Z,10.60
2018-10-07T18:37:48.119Z,10.60
2018-10-07T18:40:20.543Z,10.70
2018-10-07T18:45:26.345Z,10.40
2018-10-07T18:47:58.758Z,10.60
2018-10-07T18:53:03.603Z,10.30
2018-10-07T18:55:36.050Z,10.40
2018-10-07T18:58:08.538Z,10.40
2018-10-07T19:00:41.126Z,10.40
2018-10-07T19:03:13.578Z,10.30
2018-10-07T19:05:46.000Z,10.40
2018-10-07T19:08:18.582Z,10.40
2018-10-07T19:13:23.358Z,10.10
2018-10-07T19:15:55.748Z,10.10
2018-10-07T19:18:28.217Z,10.10
2018-10-07T19:21:00.815Z,10.10
2018-10-07T19:23:33.212Z,10.00
2018-10-07T19:26:05.646Z,10.10
2018-10-07T19:28:38.112Z,10.10
2018-10-07T19:31:10.592Z,10.20
2018-10-07T19:33:43.067Z,10.20
2018-10-07T19:36:15.452Z,10.00
2018-10-07T19:38:47.944Z,10.00
2018-10-07T19:41:21.890Z,9.90
2018-10-07T19:43:54.288Z,9.90
2018-10-07T19:46:26.674Z,9.90
2018-10-07T19:48:59.080Z,9.90
2018-10-07T19:51:32.021Z,9.90
2018-10-07T19:54:04.485Z,9.80
2018-10-07T19:56:37.225Z,9.80
2018-10-07T20:01:44.225Z,9.70
2018-10-07T20:04:16.600Z,9.80
2018-10-07T20:06:49.005Z,9.80
2018-10-07T20:09:21.379Z,9.70
2018-10-07T20:11:53.809Z,9.70
2018-10-07T20:14:26.224Z,9.70
2018-10-07T20:16:58.630Z,9.60
2018-10-07T20:19:31.122Z,9.60
2018-10-07T20:22:10.843Z,9.60
2018-10-07T20:24:43.610Z,9.50
2018-10-07T20:27:16.272Z,9.70
2018-10-07T20:32:21.236Z,9.50
2018-10-07T20:34:53.705Z,9.50
2018-10-07T20:37:26.271Z,9.50
2018-10-07T20:39:58.667Z,9.40
2018-10-07T20:42:31.766Z,9.50
2018-10-07T20:45:04.556Z,9.40
2018-10-07T20:47:37.005Z,9.50
2018-10-07T20:52:41.776Z,9.30
2018-10-07T20:55:14.196Z,9.30
2018-10-07T20:57:46.939Z,9.30
2018-10-07T21:00:19.358Z,9.20
2018-10-07T21:02:52.542Z,9.20
2018-10-07T21:05:24.916Z,9.30
2018-10-07T21:07:57.362Z,9.20
2018-10-07T21:10:29.760Z,9.20
2018-10-07T21:13:02.477Z,9.20
2018-10-07T21:15:34.883Z,9.10
2018-10-07T21:18:07.958Z,9.00
2018-10-07T21:20:40.376Z,9.10
2018-10-07T21:23:14.346Z,9.00
2018-10-07T21:25:46.741Z,8.80
2018-10-07T21:28:19.211Z,8.70
2018-10-07T21:30:51.668Z,8.70
2018-10-07T21:33:24.107Z,8.70
2018-10-07T21:35:56.486Z,8.70
2018-10-07T21:38:28.923Z,8.70
2018-10-07T21:41:01.345Z,8.50
2018-10-07T21:43:33.923Z,8.50
2018-10-07T21:46:06.549Z,8.50
2018-10-07T21:48:39.000Z,8.60
2018-10-07T21:51:11.370Z,8.60
2018-10-07T21:53:43.876Z,8.50
2018-10-07T21:56:16.278Z,8.50
2018-10-07T21:58:48.703Z,8.60
2018-10-07T22:01:21.111Z,8.70
2018-10-07T22:03:54.512Z,8.90
2018-10-07T22:06:26.919Z,8.70
2018-10-07T22:08:59.338Z,8.60
2018-10-07T22:11:31.773Z,8.60
2018-10-07T22:14:04.198Z,8.50
2018-10-07T22:16:36.582Z,8.40
2018-10-07T22:19:09.344Z,8.50
2018-10-07T22:21:41.699Z,8.50
2018-10-07T22:24:14.301Z,8.50
2018-10-07T22:26:46.708Z,8.50
2018-10-07T22:29:19.124Z,8.50
2018-10-07T22:31:51.550Z,8.50
2018-10-07T22:34:23.984Z,8.40
2018-10-07T22:36:56.399Z,8.40
2018-10-07T22:39:28.793Z,8.40
2018-10-07T22:42:01.258Z,8.40
2018-10-07T22:44:33.746Z,8.40
2018-10-07T22:47:06.155Z,8.30
2018-10-07T22:49:38.578Z,8.40
2018-10-07T22:52:10.959Z,8.40
2018-10-07T22:54:43.387Z,8.40
2018-10-07T22:57:15.815Z,8.20
2018-10-07T22:59:48.216Z,8.20
2018-10-07T23:02:20.639Z,8.20
2018-10-07T23:04:53.118Z,8.30
2018-10-07T23:07:25.613Z,8.20
2018-10-07T23:09:58.029Z,8.30
2018-10-07T23:12:30.545Z,8.30
2018-10-07T23:15:03.287Z,8.30
2018-10-07T23:17:35.662Z,8.20
2018-10-07T23:20:08.180Z,8.20
2018-10-07T23:22:40.582Z,8.20
2018-10-07T23:25:13.347Z,8.10
2018-10-07T23:27:45.753Z,8.20
2018-10-07T23:30:18.196Z,8.10
2018-10-07T23:32:50.600Z,8.10
2018-10-07T23:35:22.967Z,8.10
2018-10-07T23:37:55.373Z,8.10
2018-10-07T23:40:27.784Z,8.20
2018-10-07T23:43:00.253Z,8.20
2018-10-07T23:45:32.733Z,8.20
2018-10-07T23:48:05.364Z,8.20
2018-10-07T23:50:37.809Z,8.20
2018-10-07T23:53:10.218Z,8.20
2018-10-07T23:55:42.624Z,8.20
2018-10-07T23:58:15.013Z,8.20
